Reserve, Montana
Current Conditions -  °F | °C
As of 9:52 AM on Tuesday 27 Jan 2015 (Local Time) from KISN Reporting Station
Clear Clear  
Wind Chill: 31°   Ceiling: Unl
Heat Index: 37°   Visibility: 10mi
Dew Point: 32°   Wind: 8mph
Humidity: 82%   Direction: 200°SSW
Pressure: 29.84"   Gusts: NA
Location:  48.61°N, 104.46°W
Report Text: KISN 271652Z AUTO 20007KT 10SM CLR 03/00 A2984 RMK AO2 SLP126 T00280000
Loading
Personal Weather Stations






























Interactive Weather Map New forecast layout! Learn more

10-Day Weather Forecast

Advertisements
Track Severe Weather on mobile